createdAt,value
2023-01-25T00:01:08.346Z,28.27
2023-01-25T00:03:36.235Z,26.57
2023-01-25T00:06:04.291Z,23.73
2023-01-25T00:08:32.145Z,25.03
2023-01-25T00:10:59.925Z,22.77
2023-01-25T00:13:27.865Z,27.40
2023-01-25T00:16:01.360Z,27.53
2023-01-25T00:18:30.636Z,24.87
2023-01-25T00:20:58.446Z,27.83
2023-01-25T00:23:26.301Z,26.40
2023-01-25T00:25:58.785Z,24.50
2023-01-25T00:28:26.803Z,25.93
2023-01-25T00:30:54.629Z,20.10
2023-01-25T00:33:41.411Z,24.13
2023-01-25T00:36:41.352Z,28.63
2023-01-25T00:39:13.676Z,23.33
2023-01-25T00:41:41.894Z,26.57
2023-01-25T00:44:09.761Z,26.33
2023-01-25T00:46:37.655Z,25.60
2023-01-25T00:49:06.926Z,25.23
2023-01-25T00:51:34.799Z,26.53
2023-01-25T00:54:02.612Z,24.17
2023-01-25T00:56:30.417Z,24.30
2023-01-25T00:58:58.275Z,25.40
2023-01-25T01:01:26.161Z,26.67
2023-01-25T01:03:54.057Z,25.27
2023-01-25T01:06:23.235Z,27.63
2023-01-25T01:08:51.055Z,21.97
2023-01-25T01:11:18.915Z,24.73
2023-01-25T01:13:46.762Z,25.27
2023-01-25T01:16:15.259Z,27.23
2023-01-25T01:18:45.580Z,23.70
2023-01-25T01:21:14.363Z,24.80
2023-01-25T01:23:44.176Z,24.97
2023-01-25T01:26:14.423Z,26.47
2023-01-25T01:28:42.772Z,25.47
2023-01-25T01:31:13.376Z,26.90
2023-01-25T01:33:42.063Z,25.33
2023-01-25T01:36:11.028Z,25.37
2023-01-25T01:38:38.918Z,26.23
2023-01-25T01:41:08.563Z,25.17
2023-01-25T01:43:36.784Z,27.40
2023-01-25T01:46:07.176Z,27.20
2023-01-25T01:48:39.464Z,23.37
2023-01-25T01:51:15.251Z,27.80
2023-01-25T01:53:49.055Z,26.10
2023-01-25T01:56:23.378Z,24.80
2023-01-25T01:58:54.378Z,25.40
2023-01-25T02:01:22.212Z,23.47
2023-01-25T02:03:51.353Z,24.00
2023-01-25T02:06:27.393Z,30.60
2023-01-25T02:08:56.433Z,23.67
2023-01-25T02:11:27.939Z,23.97
2023-01-25T02:13:58.991Z,26.07
2023-01-25T02:16:29.249Z,32.70
2023-01-25T02:19:02.070Z,27.13
2023-01-25T02:21:36.315Z,26.80
2023-01-25T02:24:11.735Z,23.63
2023-01-25T02:26:41.118Z,24.13
2023-01-25T02:29:10.662Z,31.00
2023-01-25T02:31:38.541Z,26.03
2023-01-25T02:34:06.461Z,27.80
2023-01-25T02:36:35.829Z,25.77
2023-01-25T02:39:08.554Z,25.00
2023-01-25T02:41:38.332Z,27.83
2023-01-25T02:44:10.878Z,23.00
2023-01-25T02:46:40.165Z,24.43
2023-01-25T02:49:09.879Z,27.77
2023-01-25T02:51:40.365Z,24.90
2023-01-25T02:54:09.872Z,27.10
2023-01-25T02:56:38.387Z,26.10
2023-01-25T02:59:08.234Z,27.67
2023-01-25T03:01:36.902Z,25.50
2023-01-25T03:04:05.454Z,26.33
2023-01-25T03:06:33.302Z,26.70
2023-01-25T03:09:01.287Z,30.87
2023-01-25T03:11:29.192Z,32.37
2023-01-25T03:13:56.997Z,27.77
2023-01-25T03:16:26.476Z,24.60
2023-01-25T03:18:55.426Z,24.30
2023-01-25T03:21:24.163Z,27.03
2023-01-25T03:23:57.008Z,27.27
2023-01-25T03:26:26.094Z,25.30
2023-01-25T03:28:53.889Z,29.93
2023-01-25T03:31:21.854Z,24.70
2023-01-25T03:33:51.388Z,30.13
2023-01-25T03:36:19.551Z,25.90
2023-01-25T03:38:47.536Z,31.10
2023-01-25T03:41:15.356Z,29.07
2023-01-25T03:43:43.177Z,30.77
2023-01-25T03:46:10.985Z,29.90
2023-01-25T03:48:38.764Z,26.33
2023-01-25T03:51:07.971Z,25.10
2023-01-25T03:53:35.804Z,27.57
2023-01-25T03:56:07.133Z,26.60
2023-01-25T03:58:36.244Z,30.03
2023-01-25T04:01:05.939Z,26.70
2023-01-25T04:03:34.475Z,25.50
2023-01-25T04:06:02.494Z,29.00
2023-01-25T04:08:31.855Z,28.10
2023-01-25T04:11:03.046Z,25.60
2023-01-25T04:13:31.359Z,26.10
2023-01-25T04:15:59.193Z,25.97
2023-01-25T04:18:27.091Z,28.60
2023-01-25T04:20:55.498Z,27.07
2023-01-25T04:23:23.834Z,29.20
2023-01-25T04:25:56.975Z,30.27
2023-01-25T04:28:25.749Z,28.30
2023-01-25T04:30:54.641Z,24.63
2023-01-25T04:33:22.904Z,27.13
2023-01-25T04:35:50.830Z,25.57
2023-01-25T04:38:19.317Z,29.00
2023-01-25T04:40:47.161Z,25.10
2023-01-25T04:43:17.398Z,27.17
2023-01-25T04:45:45.415Z,26.87
2023-01-25T04:48:15.151Z,25.37
2023-01-25T04:50:44.103Z,24.90
2023-01-25T04:53:13.457Z,26.77
2023-01-25T04:55:41.272Z,23.97
2023-01-25T04:58:09.065Z,29.80
2023-01-25T05:00:38.238Z,28.10
2023-01-25T05:03:06.025Z,28.33
2023-01-25T05:05:33.804Z,25.30
2023-01-25T05:08:01.653Z,27.77
2023-01-25T05:10:29.447Z,23.80
2023-01-25T05:12:57.240Z,22.57
2023-01-25T05:15:25.051Z,26.40
2023-01-25T05:17:54.198Z,28.37
2023-01-25T05:20:21.994Z,24.67
2023-01-25T05:22:49.817Z,28.43
2023-01-25T05:25:35.135Z,26.37
2023-01-25T05:28:05.612Z,28.37
2023-01-25T05:30:33.404Z,27.97
2023-01-25T05:33:02.895Z,25.43
2023-01-25T05:35:30.745Z,29.43
2023-01-25T05:37:59.014Z,29.70
2023-01-25T05:40:27.597Z,25.30
2023-01-25T05:42:56.400Z,25.33
2023-01-25T05:45:24.502Z,24.13
2023-01-25T05:47:55.353Z,26.30
2023-01-25T05:50:25.758Z,23.43
2023-01-25T05:52:54.353Z,28.57
2023-01-25T05:55:22.167Z,26.47
2023-01-25T05:57:50.444Z,33.80
2023-01-25T06:00:19.194Z,27.37
2023-01-25T06:02:47.065Z,31.97
2023-01-25T06:05:15.102Z,29.80
2023-01-25T06:07:44.219Z,24.70
2023-01-25T06:10:12.396Z,24.40
2023-01-25T06:12:40.456Z,29.23
2023-01-25T06:15:09.759Z,31.23
2023-01-25T06:17:37.707Z,29.93
2023-01-25T06:20:06.739Z,28.73
2023-01-25T06:22:34.547Z,26.80
2023-01-25T06:25:03.728Z,29.40
2023-01-25T06:27:31.503Z,27.93
2023-01-25T06:29:59.333Z,31.30
2023-01-25T06:32:32.230Z,28.53
2023-01-25T06:35:00.084Z,29.10
2023-01-25T06:37:27.960Z,33.37
2023-01-25T06:39:55.752Z,30.67
2023-01-25T06:42:26.589Z,27.83
2023-01-25T06:44:54.435Z,37.53
2023-01-25T06:47:22.248Z,33.23
2023-01-25T06:49:50.093Z,29.10
2023-01-25T06:52:17.889Z,32.57
2023-01-25T06:54:46.042Z,28.70
2023-01-25T06:57:13.871Z,31.50
2023-01-25T06:59:43.021Z,29.93
2023-01-25T07:02:15.211Z,31.80
2023-01-25T07:04:43.163Z,31.83
2023-01-25T07:07:11.213Z,33.77
2023-01-25T07:09:39.039Z,30.40
2023-01-25T07:12:07.589Z,27.03
2023-01-25T07:14:35.400Z,32.30
2023-01-25T07:17:04.521Z,28.73
2023-01-25T07:19:32.322Z,35.13
2023-01-25T07:22:00.145Z,30.67
2023-01-25T07:24:29.483Z,30.07
2023-01-25T07:26:57.409Z,29.23
2023-01-25T07:29:25.263Z,30.93
2023-01-25T07:31:53.197Z,28.73
2023-01-25T07:34:23.122Z,26.77
2023-01-25T07:36:50.905Z,34.87
2023-01-25T07:39:18.793Z,37.43
2023-01-25T07:41:46.565Z,30.43
2023-01-25T07:44:14.495Z,28.17
2023-01-25T07:46:42.318Z,29.47
2023-01-25T07:49:10.135Z,30.73
2023-01-25T07:51:39.275Z,33.93
2023-01-25T07:54:07.129Z,29.67
2023-01-25T07:56:36.517Z,32.60
2023-01-25T07:59:04.862Z,35.70
2023-01-25T08:01:34.381Z,36.00
2023-01-25T08:04:03.327Z,31.60
2023-01-25T08:06:34.591Z,30.07
2023-01-25T08:09:06.440Z,30.00
2023-01-25T08:11:34.722Z,37.30
2023-01-25T08:14:03.213Z,34.80
2023-01-25T08:16:34.071Z,35.37
2023-01-25T08:19:03.400Z,33.93
2023-01-25T08:21:33.763Z,38.87
2023-01-25T08:24:05.544Z,40.40
2023-01-25T08:26:34.277Z,37.17
2023-01-25T08:29:02.098Z,31.60
2023-01-25T08:31:32.158Z,40.00
2023-01-25T08:34:00.724Z,33.77
2023-01-25T08:36:28.874Z,30.17
2023-01-25T08:38:58.712Z,37.90
2023-01-25T08:41:29.750Z,32.23
2023-01-25T08:43:58.464Z,40.20
2023-01-25T08:46:30.516Z,34.93
2023-01-25T08:49:01.137Z,29.60
2023-01-25T08:51:31.640Z,36.57
2023-01-25T08:54:03.620Z,37.83
2023-01-25T08:56:32.847Z,35.53
2023-01-25T08:59:00.647Z,32.60
2023-01-25T09:01:29.073Z,35.23
2023-01-25T09:03:57.817Z,34.53
2023-01-25T09:06:25.727Z,36.67
2023-01-25T09:08:53.516Z,33.93
2023-01-25T09:11:23.243Z,33.23
2023-01-25T09:13:52.403Z,31.70
2023-01-25T09:16:28.148Z,30.83
2023-01-25T09:19:01.625Z,28.33
2023-01-25T09:21:30.518Z,30.20
2023-01-25T09:24:07.451Z,35.40
2023-01-25T09:26:37.767Z,31.67
2023-01-25T09:29:08.146Z,31.40
2023-01-25T09:31:40.309Z,35.80
2023-01-25T09:34:08.701Z,35.40
2023-01-25T09:36:37.094Z,30.80
2023-01-25T09:39:05.352Z,30.70
2023-01-25T09:41:58.271Z,32.67
2023-01-25T09:44:42.188Z,30.57
2023-01-25T09:47:17.168Z,30.17
2023-01-25T09:49:59.344Z,28.83
2023-01-25T09:52:47.931Z,29.10
2023-01-25T09:55:19.441Z,34.23
2023-01-25T09:57:50.532Z,34.23
2023-01-25T10:00:24.462Z,31.50
2023-01-25T10:02:57.801Z,31.27
2023-01-25T10:05:32.045Z,31.90
2023-01-25T10:08:07.115Z,34.60
2023-01-25T10:10:39.244Z,37.73
2023-01-25T10:13:12.321Z,31.77
2023-01-25T10:15:45.031Z,33.83
2023-01-25T10:18:21.927Z,31.07
2023-01-25T10:20:54.990Z,30.23
2023-01-25T10:23:41.444Z,31.63
2023-01-25T10:26:19.092Z,31.17
2023-01-25T10:28:55.774Z,30.73
2023-01-25T10:31:32.830Z,34.17
2023-01-25T10:34:09.443Z,29.90
2023-01-25T10:36:37.322Z,35.73
2023-01-25T10:39:07.713Z,28.17
2023-01-25T10:41:40.816Z,34.57
2023-01-25T10:44:24.929Z,32.30
2023-01-25T10:47:02.271Z,31.03
2023-01-25T10:49:41.136Z,33.37
2023-01-25T10:52:18.135Z,32.43
2023-01-25T10:54:46.521Z,35.83
2023-01-25T10:57:18.494Z,28.70
2023-01-25T10:59:48.999Z,29.30
2023-01-25T11:02:40.502Z,35.37
2023-01-25T11:05:33.540Z,36.90
2023-01-25T11:08:21.896Z,30.93
2023-01-25T11:10:50.414Z,33.80
2023-01-25T11:13:24.157Z,31.87
2023-01-25T11:15:53.870Z,30.40
2023-01-25T11:18:25.969Z,31.03
2023-01-25T11:21:07.976Z,33.63
2023-01-25T11:23:35.764Z,35.10
2023-01-25T11:26:16.506Z,28.33
2023-01-25T11:28:46.019Z,33.13
2023-01-25T11:31:15.925Z,32.03
2023-01-25T11:33:45.163Z,30.53
2023-01-25T11:36:23.542Z,29.13
2023-01-25T11:39:10.784Z,34.97
2023-01-25T11:41:49.400Z,26.90
2023-01-25T11:44:47.797Z,26.20
2023-01-25T11:47:27.115Z,25.33
2023-01-25T11:50:08.202Z,28.23
2023-01-25T11:52:52.825Z,31.97
2023-01-25T11:55:27.592Z,24.03
2023-01-25T11:58:11.166Z,32.17
2023-01-25T12:00:59.221Z,26.33
2023-01-25T12:03:47.465Z,29.67
2023-01-25T12:06:22.271Z,26.00
2023-01-25T12:09:26.926Z,25.10
2023-01-25T12:12:06.975Z,29.00
2023-01-25T12:14:48.268Z,30.80
2023-01-25T12:17:38.970Z,26.60
2023-01-25T12:20:24.978Z,27.77
2023-01-25T12:23:11.889Z,30.10
2023-01-25T12:25:54.138Z,25.37
2023-01-25T12:28:27.118Z,27.00
2023-01-25T12:30:59.199Z,24.27
2023-01-25T12:33:33.877Z,26.20
2023-01-25T12:36:07.655Z,32.27
2023-01-25T12:38:42.517Z,30.37
2023-01-25T12:41:19.776Z,20.80
2023-01-25T12:43:53.804Z,25.77
2023-01-25T12:46:29.362Z,26.00
2023-01-25T12:49:02.324Z,26.77
2023-01-25T12:51:36.517Z,25.37
2023-01-25T12:54:13.708Z,24.63
2023-01-25T12:56:45.192Z,25.77
2023-01-25T12:59:19.682Z,29.97
2023-01-25T13:01:52.367Z,24.23
2023-01-25T13:04:48.901Z,24.47
2023-01-25T13:07:21.690Z,27.03
2023-01-25T13:10:00.394Z,27.60
2023-01-25T13:12:28.564Z,30.43
2023-01-25T13:14:56.459Z,26.30
2023-01-25T13:17:31.547Z,24.73
2023-01-25T13:20:00.243Z,24.27
2023-01-25T13:22:58.626Z,24.97
2023-01-25T13:25:28.559Z,24.00
2023-01-25T13:28:29.992Z,24.10
2023-01-25T13:30:57.878Z,26.90
2023-01-25T13:33:34.453Z,22.50
2023-01-25T13:36:35.715Z,22.40
2023-01-25T13:39:23.572Z,22.83
2023-01-25T13:42:03.276Z,20.73
2023-01-25T13:44:33.193Z,20.43
2023-01-25T13:47:03.384Z,22.10
2023-01-25T13:49:36.565Z,23.50
2023-01-25T13:52:05.619Z,26.27
2023-01-25T13:54:33.431Z,36.53
2023-01-25T13:57:06.797Z,24.60
2023-01-25T13:59:34.621Z,23.90
2023-01-25T14:02:02.878Z,26.37
2023-01-25T14:04:31.627Z,25.97
2023-01-25T14:07:02.837Z,22.10
2023-01-25T14:09:31.353Z,20.73
2023-01-25T14:12:02.223Z,23.47
2023-01-25T14:14:33.530Z,25.53
2023-01-25T14:17:15.836Z,24.93
2023-01-25T14:19:45.204Z,20.77
2023-01-25T14:22:23.046Z,26.10
2023-01-25T14:25:05.019Z,23.60
2023-01-25T14:27:34.071Z,22.83
2023-01-25T14:30:05.416Z,27.43
2023-01-25T14:32:34.051Z,26.50
2023-01-25T14:35:43.021Z,20.73
2023-01-25T14:38:26.957Z,24.43
2023-01-25T14:40:57.822Z,26.17
2023-01-25T14:43:26.730Z,25.60
2023-01-25T14:45:56.005Z,23.03
2023-01-25T14:48:37.860Z,25.87
2023-01-25T14:51:12.713Z,23.30
2023-01-25T14:53:42.825Z,19.77
2023-01-25T14:56:26.499Z,20.83
2023-01-25T14:58:59.752Z,23.80
2023-01-25T15:01:34.275Z,23.87
2023-01-25T15:04:02.240Z,22.43
2023-01-25T15:06:30.126Z,23.97
2023-01-25T15:08:57.972Z,24.73
2023-01-25T15:11:38.753Z,24.50
2023-01-25T15:14:18.083Z,21.00
2023-01-25T15:16:47.568Z,24.60
2023-01-25T15:19:27.296Z,23.17
2023-01-25T15:22:00.261Z,25.63
2023-01-25T15:24:28.764Z,20.70
2023-01-25T15:26:56.844Z,25.33
2023-01-25T15:29:27.005Z,22.93
2023-01-25T15:31:57.237Z,23.07
2023-01-25T15:34:29.205Z,20.00
2023-01-25T15:36:57.037Z,21.53
2023-01-25T15:39:24.871Z,24.40
2023-01-25T15:41:52.699Z,25.50
2023-01-25T15:44:21.025Z,25.00
2023-01-25T15:46:52.311Z,25.77
2023-01-25T15:49:25.841Z,22.60
2023-01-25T15:51:53.928Z,20.53
2023-01-25T15:54:21.786Z,22.67
2023-01-25T15:56:55.189Z,24.50
2023-01-25T15:59:23.175Z,24.30
2023-01-25T16:01:51.031Z,23.93
2023-01-25T16:04:18.958Z,26.47
2023-01-25T16:06:50.711Z,25.30
2023-01-25T16:09:21.604Z,24.87
2023-01-25T16:11:52.624Z,20.70
2023-01-25T16:14:20.799Z,28.13
2023-01-25T16:16:50.722Z,24.87
2023-01-25T16:19:22.710Z,21.93
2023-01-25T16:21:52.408Z,25.17
2023-01-25T16:24:20.535Z,26.03
2023-01-25T16:26:51.616Z,22.80
2023-01-25T16:29:19.426Z,25.80
2023-01-25T16:31:47.331Z,26.27
2023-01-25T16:34:15.252Z,26.00
2023-01-25T16:36:47.771Z,24.97
2023-01-25T16:39:20.003Z,27.40
2023-01-25T16:41:48.095Z,24.73
2023-01-25T16:44:16.338Z,24.83
2023-01-25T16:46:44.153Z,27.57
2023-01-25T16:49:17.277Z,26.80
2023-01-25T16:51:45.962Z,25.17
2023-01-25T16:54:13.761Z,24.67
2023-01-25T16:56:42.932Z,31.57
2023-01-25T16:59:11.651Z,25.93
2023-01-25T17:01:41.327Z,26.50
2023-01-25T17:04:09.374Z,26.10
2023-01-25T17:06:39.351Z,27.00
2023-01-25T17:09:21.610Z,25.03
2023-01-25T17:11:52.008Z,28.60
2023-01-25T17:14:20.793Z,25.70
2023-01-25T17:16:51.409Z,29.83
2023-01-25T17:19:20.164Z,25.97
2023-01-25T17:21:48.450Z,26.30
2023-01-25T17:24:18.879Z,25.33
2023-01-25T17:26:46.789Z,28.63
2023-01-25T17:29:15.929Z,29.33
2023-01-25T17:31:44.402Z,26.43
2023-01-25T17:34:15.959Z,28.13
2023-01-25T17:36:44.440Z,26.90
2023-01-25T17:39:15.298Z,30.80
2023-01-25T17:41:43.174Z,25.40
2023-01-25T17:44:11.035Z,27.70
2023-01-25T17:46:40.273Z,26.70
2023-01-25T17:49:11.467Z,28.77
2023-01-25T17:51:39.649Z,30.63
2023-01-25T17:54:07.800Z,30.40
2023-01-25T17:56:38.535Z,30.73
2023-01-25T17:59:08.875Z,30.63
2023-01-25T18:01:37.307Z,31.90
2023-01-25T18:04:08.597Z,30.70
2023-01-25T18:06:37.056Z,33.37
2023-01-25T18:09:07.012Z,32.63
2023-01-25T18:11:36.386Z,30.73
2023-01-25T18:14:08.861Z,31.30
2023-01-25T18:16:39.391Z,35.57
2023-01-25T18:19:09.762Z,30.40
2023-01-25T18:21:38.660Z,31.70
2023-01-25T18:24:23.002Z,32.43
2023-01-25T18:26:52.316Z,31.50
2023-01-25T18:29:41.057Z,27.53
2023-01-25T18:32:08.897Z,31.33
2023-01-25T18:34:38.105Z,32.10
2023-01-25T18:37:17.675Z,31.43
2023-01-25T18:39:45.847Z,35.20
2023-01-25T18:42:13.711Z,30.67
2023-01-25T18:44:41.554Z,32.90
2023-01-25T18:47:13.632Z,35.40
2023-01-25T18:49:42.942Z,37.73
2023-01-25T18:52:12.026Z,30.20
2023-01-25T18:54:39.975Z,36.80
2023-01-25T18:57:07.831Z,36.53
2023-01-25T18:59:35.624Z,34.83
2023-01-25T19:02:03.729Z,40.10
2023-01-25T19:04:31.754Z,37.27
2023-01-25T19:07:01.530Z,30.93
2023-01-25T19:09:29.659Z,30.80
2023-01-25T19:11:57.922Z,35.77
2023-01-25T19:14:26.162Z,31.70
2023-01-25T19:16:54.128Z,34.20
2023-01-25T19:19:23.468Z,34.93
2023-01-25T19:21:51.295Z,31.50
2023-01-25T19:24:20.793Z,32.23
2023-01-25T19:26:48.652Z,35.37
2023-01-25T19:29:16.887Z,34.97
2023-01-25T19:31:44.964Z,36.27
2023-01-25T19:34:12.908Z,36.60
2023-01-25T19:36:45.853Z,34.37
2023-01-25T19:39:14.418Z,40.80
2023-01-25T19:41:43.634Z,36.33
2023-01-25T19:44:13.769Z,34.23
2023-01-25T19:46:42.029Z,31.57
2023-01-25T19:49:13.165Z,34.90
2023-01-25T19:51:44.184Z,34.60
2023-01-25T19:54:15.790Z,37.17
2023-01-25T19:56:46.734Z,35.43
2023-01-25T19:59:16.664Z,34.73
2023-01-25T20:01:45.204Z,36.53
2023-01-25T20:04:14.408Z,39.67
2023-01-25T20:06:42.575Z,35.60
2023-01-25T20:09:12.769Z,36.20
2023-01-25T20:11:40.895Z,38.70
2023-01-25T20:14:12.302Z,33.40
2023-01-25T20:16:40.140Z,35.30
2023-01-25T20:19:07.992Z,34.60
2023-01-25T20:21:38.123Z,40.03
2023-01-25T20:24:07.220Z,35.93
2023-01-25T20:26:39.041Z,33.80
2023-01-25T20:29:08.198Z,36.57
2023-01-25T20:31:39.252Z,35.90
2023-01-25T20:34:08.876Z,37.97
2023-01-25T20:36:37.252Z,37.00
2023-01-25T20:39:06.434Z,36.23
2023-01-25T20:41:34.590Z,31.63
2023-01-25T20:44:08.416Z,36.93
2023-01-25T20:46:39.111Z,36.57
2023-01-25T20:49:08.094Z,37.00
2023-01-25T20:51:36.222Z,41.03
2023-01-25T20:54:04.242Z,38.20
2023-01-25T20:56:32.742Z,42.93
2023-01-25T20:59:00.560Z,37.47
2023-01-25T21:01:30.502Z,34.57
2023-01-25T21:03:59.715Z,35.80
2023-01-25T21:06:28.734Z,33.03
2023-01-25T21:08:56.661Z,37.13
2023-01-25T21:11:25.039Z,34.17
2023-01-25T21:13:53.898Z,31.23
2023-01-25T21:16:23.209Z,35.97
2023-01-25T21:18:52.573Z,35.50
2023-01-25T21:21:23.326Z,35.57
2023-01-25T21:23:51.875Z,34.50
2023-01-25T21:26:21.233Z,38.60
2023-01-25T21:28:49.728Z,35.87
2023-01-25T21:31:19.228Z,32.93
2023-01-25T21:33:47.920Z,34.23
2023-01-25T21:36:18.051Z,34.93
2023-01-25T21:38:49.119Z,33.60
2023-01-25T21:41:19.931Z,37.23
2023-01-25T21:44:05.258Z,35.97
2023-01-25T21:46:33.191Z,32.30
2023-01-25T21:49:19.901Z,37.30
2023-01-25T21:51:50.148Z,35.63
2023-01-25T21:54:20.483Z,34.80
2023-01-25T21:56:49.882Z,37.93
2023-01-25T21:59:18.022Z,32.90
2023-01-25T22:01:46.200Z,36.07
2023-01-25T22:04:15.449Z,38.90
2023-01-25T22:06:43.809Z,30.20
2023-01-25T22:09:13.484Z,34.97
2023-01-25T22:11:45.811Z,28.57
2023-01-25T22:14:13.692Z,36.50
2023-01-25T22:16:41.526Z,35.03
2023-01-25T22:19:09.516Z,36.73
2023-01-25T22:21:37.385Z,36.27
2023-01-25T22:24:06.585Z,31.57
2023-01-25T22:26:44.743Z,33.67
2023-01-25T22:29:14.973Z,34.23
2023-01-25T22:31:43.189Z,37.30
2023-01-25T22:34:11.890Z,35.00
2023-01-25T22:36:39.684Z,36.70
2023-01-25T22:39:07.509Z,32.67
2023-01-25T22:41:38.091Z,36.93
2023-01-25T22:44:06.100Z,31.50
2023-01-25T22:46:35.481Z,34.03
2023-01-25T22:49:04.703Z,36.50
2023-01-25T22:51:33.422Z,32.80
2023-01-25T22:54:01.567Z,34.57
2023-01-25T22:56:31.701Z,35.83
2023-01-25T22:59:00.548Z,29.87
2023-01-25T23:01:30.437Z,36.23
2023-01-25T23:04:00.340Z,31.77
2023-01-25T23:06:29.948Z,33.47
2023-01-25T23:08:59.842Z,33.30
2023-01-25T23:11:32.037Z,34.00
2023-01-25T23:14:17.960Z,35.80
2023-01-25T23:16:45.844Z,40.07
2023-01-25T23:19:14.756Z,35.50
2023-01-25T23:21:42.584Z,32.13
2023-01-25T23:24:12.045Z,37.00
2023-01-25T23:26:45.996Z,41.30
2023-01-25T23:29:14.372Z,33.10
2023-01-25T23:31:42.386Z,35.13
2023-01-25T23:34:13.920Z,33.80
2023-01-25T23:36:42.385Z,34.43
2023-01-25T23:39:13.290Z,32.60
2023-01-25T23:41:41.113Z,32.87
2023-01-25T23:44:09.772Z,35.00
2023-01-25T23:46:37.624Z,35.80
2023-01-25T23:49:05.473Z,37.80
2023-01-25T23:51:34.620Z,39.30
2023-01-25T23:54:02.537Z,35.87
2023-01-25T23:56:30.444Z,33.20
2023-01-25T23:58:58.679Z,38.73
